Time;durP1;ratioP1;P1;durP2;ratioP2;P2;SDS_P1;SDS_P2;PMS_P1;PMS_P2;Temp;Humidity;BMP_temperature;BMP_pressure;BME280_temperature;BME280_humidity;BME280_pressure;Samples;Min_cycle;Max_cycle;Signal;HPM_P1;HPM_P2
2024/04/14 00:01:59;;;;;;;12.60;6.65;;;;;;;11.59;100.00;99355.81;5391526;26;19996;-75
2024/04/14 00:04:24;;;;;;;8.63;6.40;;;;;;;11.54;100.00;99366.41;5393790;26;19996;-74
2024/04/14 00:06:50;;;;;;;20.00;7.05;;;;;;;11.56;100.00;99358.94;5392865;26;20108;-74
2024/04/14 00:09:15;;;;;;;9.70;6.60;;;;;;;11.58;100.00;99361.41;5390168;26;20053;-74
2024/04/14 00:11:40;;;;;;;13.00;6.38;;;;;;;11.49;100.00;99349.91;5391082;26;20006;-74
2024/04/14 00:14:06;;;;;;;10.52;6.30;;;;;;;11.37;100.00;99332.47;5390481;26;20074;-74
2024/04/14 00:16:31;;;;;;;15.18;6.40;;;;;;;11.45;100.00;99345.91;5387817;26;20004;-74
2024/04/14 00:18:57;;;;;;;9.88;6.25;;;;;;;11.43;100.00;99345.28;5392154;26;20015;-74
2024/04/14 00:21:22;;;;;;;17.17;5.32;;;;;;;11.43;100.00;99326.31;5394856;26;20212;-74
2024/04/14 00:23:48;;;;;;;12.65;5.15;;;;;;;11.38;100.00;99335.00;5394667;26;20096;-74
2024/04/14 00:26:13;;;;;;;9.82;5.10;;;;;;;11.33;100.00;99331.22;5387062;26;20000;-74
2024/04/14 00:28:39;;;;;;;9.48;5.45;;;;;;;11.33;100.00;99347.47;5384571;26;20174;-74
2024/04/14 00:31:05;;;;;;;8.45;4.60;;;;;;;11.34;100.00;99341.00;5379642;26;20105;-74
2024/04/14 00:33:31;;;;;;;14.90;5.75;;;;;;;11.28;100.00;99339.09;5393441;26;20000;-74
2024/04/14 00:35:56;;;;;;;7.25;4.63;;;;;;;11.22;100.00;99324.47;5393545;26;20007;-74
2024/04/14 00:38:22;;;;;;;12.30;5.10;;;;;;;11.17;100.00;99337.75;5394091;26;19992;-74
2024/04/14 00:40:47;;;;;;;9.50;4.72;;;;;;;11.16;100.00;99331.50;5384436;26;20003;-75
2024/04/14 00:43:15;;;;;;;7.40;4.75;;;;;;;11.19;100.00;99336.50;5391413;26;20012;-74
2024/04/14 00:45:42;;;;;;;11.15;7.10;;;;;;;11.27;100.00;99342.84;5390782;26;20023;-74
2024/04/14 00:48:07;;;;;;;11.38;6.65;;;;;;;11.07;100.00;99319.09;5389122;26;20042;-74
2024/04/14 00:50:33;;;;;;;10.00;5.85;;;;;;;10.98;100.00;99320.28;5394060;26;20004;-74
2024/04/14 00:52:58;;;;;;;9.25;6.15;;;;;;;10.96;100.00;99331.28;5393625;26;20000;-74
2024/04/14 00:55:24;;;;;;;8.82;6.05;;;;;;;11.00;100.00;99328.19;5386767;26;20049;-74
2024/04/14 00:57:50;;;;;;;8.93;6.38;;;;;;;10.94;100.00;99321.69;5391101;26;19992;-74
2024/04/14 01:00:16;;;;;;;12.35;6.53;;;;;;;10.98;100.00;99323.00;5387218;26;20000;-74
2024/04/14 01:02:41;;;;;;;10.63;7.07;;;;;;;10.92;100.00;99324.56;5392187;26;20016;-74
2024/04/14 01:05:07;;;;;;;11.07;6.75;;;;;;;10.93;100.00;99320.03;5390435;26;20012;-74
2024/04/14 01:07:32;;;;;;;10.23;6.18;;;;;;;10.89;100.00;99318.72;5389003;26;20211;-74
2024/04/14 01:09:58;;;;;;;13.75;7.82;;;;;;;10.90;100.00;99325.81;5393822;26;19999;-74
2024/04/14 01:12:23;;;;;;;13.23;8.10;;;;;;;10.83;100.00;99317.63;5385149;26;20023;-74
2024/04/14 01:14:50;;;;;;;15.93;9.20;;;;;;;10.82;100.00;99328.63;5386625;26;19997;-74
2024/04/14 01:17:15;;;;;;;16.63;9.52;;;;;;;10.78;100.00;99330.91;5380024;26;19996;-75
2024/04/14 01:19:41;;;;;;;14.90;9.82;;;;;;;10.83;100.00;99331.16;5393584;26;20048;-75
2024/04/14 01:22:06;;;;;;;16.83;9.82;;;;;;;10.81;100.00;99337.78;5392478;26;20196;-74
2024/04/14 01:24:32;;;;;;;15.88;8.98;;;;;;;10.86;100.00;99343.47;5393023;26;20016;-74
2024/04/14 01:26:57;;;;;;;15.07;9.00;;;;;;;10.86;100.00;99338.06;5391817;26;20004;-74
2024/04/14 01:29:22;;;;;;;15.90;9.30;;;;;;;10.81;100.00;99337.78;5389559;26;20030;-74
2024/04/14 01:31:48;;;;;;;16.33;9.90;;;;;;;10.83;100.00;99343.84;5391458;26;19996;-74
2024/04/14 01:34:17;;;;;;;14.90;8.65;;;;;;;10.80;100.00;99336.13;5385478;26;20007;-74
2024/04/14 01:36:42;;;;;;;12.07;6.63;;;;;;;10.77;100.00;99348.16;5390684;26;20069;-74
2024/04/14 01:39:07;;;;;;;10.93;6.63;;;;;;;10.72;100.00;99339.78;5391622;26;20049;-74
2024/04/14 01:41:33;;;;;;;7.93;5.35;;;;;;;10.72;100.00;99331.66;5392734;26;20165;-74
2024/04/14 01:43:58;;;;;;;13.27;5.70;;;;;;;10.61;100.00;99333.00;5388853;26;19997;-74
2024/04/14 01:46:23;;;;;;;10.90;5.18;;;;;;;10.50;100.00;99314.53;5392056;26;19999;-75
2024/04/14 01:48:48;;;;;;;13.27;6.18;;;;;;;10.63;100.00;99322.81;5386192;26;20127;-75
2024/04/14 01:51:14;;;;;;;11.35;5.55;;;;;;;10.60;100.00;99320.50;5390040;26;20012;-74
2024/04/14 01:53:39;;;;;;;9.93;6.13;;;;;;;10.59;100.00;99329.66;5390492;26;20398;-74
2024/04/14 01:56:04;;;;;;;10.40;5.75;;;;;;;10.59;100.00;99326.94;5387974;26;20007;-74
2024/04/14 01:58:30;;;;;;;12.10;6.55;;;;;;;10.58;100.00;99322.53;5382159;26;20007;-74
2024/04/14 02:00:55;;;;;;;10.27;6.97;;;;;;;10.49;100.00;99319.13;5394656;26;19995;-74
2024/04/14 02:03:20;;;;;;;11.18;6.68;;;;;;;10.33;100.00;99315.81;5391082;26;19996;-74
2024/04/14 02:05:55;;;;;;;17.75;6.13;;;;;;;10.35;100.00;99316.44;5389801;26;19996;-74
2024/04/14 02:08:20;;;;;;;14.77;7.22;;;;;;;10.30;100.00;99317.84;5385985;26;19996;-74
2024/04/14 02:10:45;;;;;;;11.23;7.05;;;;;;;10.29;100.00;99332.38;5391001;26;19993;-74
2024/04/14 02:13:11;;;;;;;11.18;6.93;;;;;;;10.25;100.00;99322.97;5392316;26;19996;-74
2024/04/14 02:15:36;;;;;;;10.00;6.55;;;;;;;10.24;100.00;99323.13;5386400;26;20007;-74
2024/04/14 02:18:01;;;;;;;10.02;5.78;;;;;;;10.15;100.00;99317.00;5393018;26;19996;-74
2024/04/14 02:20:27;;;;;;;7.07;4.60;;;;;;;10.09;100.00;99317.75;5391192;26;19996;-74
2024/04/14 02:22:52;;;;;;;10.07;6.00;;;;;;;10.18;100.00;99319.31;5384277;26;20058;-74
2024/04/14 02:25:17;;;;;;;8.00;4.75;;;;;;;10.09;100.00;99312.34;5392922;26;19992;-74
2024/04/14 02:27:43;;;;;;;15.80;5.30;;;;;;;10.01;100.00;99317.88;5389688;26;20023;-74
2024/04/14 02:30:08;;;;;;;19.02;5.88;;;;;;;10.06;100.00;99312.69;5388129;26;20208;-74
2024/04/14 02:32:34;;;;;;;8.80;5.35;;;;;;;10.06;100.00;99320.81;5392000;26;20222;-74
2024/04/14 02:34:59;;;;;;;10.80;5.53;;;;;;;10.00;100.00;99314.28;5401322;26;20016;-74
2024/04/14 02:37:24;;;;;;;8.63;5.70;;;;;;;9.91;100.00;99304.63;5393693;26;20224;-74
2024/04/14 02:39:50;;;;;;;9.38;5.63;;;;;;;10.09;100.00;99331.28;5392975;26;20007;-74
2024/04/14 02:42:15;;;;;;;11.40;5.32;;;;;;;10.05;100.00;99325.38;5395099;26;20205;-74
2024/04/14 02:44:41;;;;;;;9.65;5.55;;;;;;;9.97;100.00;99330.06;5383338;26;19989;-74
2024/04/14 02:47:06;;;;;;;7.68;5.03;;;;;;;9.78;100.00;99301.75;5394355;26;19992;-74
2024/04/14 02:49:31;;;;;;;7.93;5.20;;;;;;;9.92;100.00;99327.06;5388299;26;19997;-74
2024/04/14 02:51:57;;;;;;;9.73;5.65;;;;;;;9.83;100.00;99308.25;5393414;26;20000;-74
2024/04/14 02:54:22;;;;;;;9.63;6.07;;;;;;;9.85;100.00;99308.91;5393661;26;20255;-74
2024/04/14 02:56:47;;;;;;;12.70;6.15;;;;;;;9.88;100.00;99316.66;5394426;26;20212;-74
2024/04/14 02:59:12;;;;;;;9.05;5.95;;;;;;;9.92;100.00;99306.28;5393435;26;20011;-74
2024/04/14 03:01:38;;;;;;;8.32;5.50;;;;;;;9.88;100.00;99308.53;5393655;26;20041;-74
2024/04/14 03:04:03;;;;;;;10.68;5.55;;;;;;;9.83;100.00;99308.25;5388039;26;20062;-74
2024/04/14 03:06:29;;;;;;;7.43;5.60;;;;;;;9.86;100.00;99310.59;5390279;26;20125;-74
2024/04/14 03:08:54;;;;;;;10.50;6.05;;;;;;;9.65;100.00;99296.97;5392478;26;20014;-74
2024/04/14 03:13:52;;;;;;;11.23;6.35;;;;;;;9.59;100.00;99305.81;5424742;26;20041;-71
2024/04/14 03:16:17;;;;;;;11.65;6.18;;;;;;;9.61;100.00;99314.56;5442123;26;19998;-72
2024/04/14 03:18:46;;;;;;;12.13;6.78;;;;;;;9.51;100.00;99308.59;5440527;26;20002;-73
2024/04/14 03:21:11;;;;;;;10.68;7.50;;;;;;;9.52;100.00;99324.63;5447623;26;20253;-73
2024/04/14 03:23:36;;;;;;;12.45;7.75;;;;;;;9.44;100.00;99320.13;5438436;26;20008;-72
2024/04/14 03:26:02;;;;;;;9.20;7.22;;;;;;;9.49;100.00;99319.59;5411192;26;19991;-73
2024/04/14 03:28:27;;;;;;;13.60;7.90;;;;;;;9.28;100.00;99290.59;5446803;26;20030;-73
2024/04/14 03:30:58;;;;;;;16.17;7.88;;;;;;;9.52;100.00;99313.81;5408861;26;19987;-73
2024/04/14 03:33:24;;;;;;;11.68;8.18;;;;;;;9.55;100.00;99320.72;5412084;26;19995;-73
2024/04/14 03:35:58;;;;;;;12.43;8.20;;;;;;;9.58;100.00;99323.88;5410233;26;20136;-73
2024/04/14 03:38:24;;;;;;;13.10;7.97;;;;;;;9.65;100.00;99324.00;5444812;26;19995;-73
2024/04/14 03:40:53;;;;;;;13.80;8.27;;;;;;;9.54;100.00;99317.19;5430005;26;20061;-73
2024/04/14 03:43:18;;;;;;;11.43;7.85;;;;;;;9.54;100.00;99319.88;5413313;26;20226;-73
2024/04/14 03:45:43;;;;;;;13.30;7.85;;;;;;;9.69;100.00;99336.09;5432787;26;20045;-73
2024/04/14 03:48:09;;;;;;;11.05;7.13;;;;;;;9.57;100.00;99318.66;5399645;26;20029;-73
2024/04/14 03:50:34;;;;;;;10.32;7.45;;;;;;;9.59;100.00;99316.63;5439680;26;20106;-73
2024/04/14 03:53:00;;;;;;;12.40;7.22;;;;;;;9.69;100.00;99327.16;5440368;26;20008;-73
2024/04/14 03:55:25;;;;;;;8.20;5.75;;;;;;;9.68;100.00;99334.44;5401139;26;20072;-73
2024/04/14 03:57:50;;;;;;;10.95;6.13;;;;;;;9.75;100.00;99324.56;5414579;26;19988;-73
2024/04/14 04:00:16;;;;;;;9.48;6.13;;;;;;;9.71;100.00;99325.94;5409214;26;19992;-73
2024/04/14 04:02:41;;;;;;;11.10;6.75;;;;;;;9.46;100.00;99313.69;5424065;26;20024;-73
2024/04/14 04:05:08;;;;;;;8.75;6.07;;;;;;;9.48;100.00;99328.69;5442274;26;20007;-73
2024/04/14 04:07:33;;;;;;;10.77;6.82;;;;;;;9.32;100.00;99315.34;5423257;26;20000;-73
2024/04/14 04:09:58;;;;;;;10.93;6.13;;;;;;;9.35;100.00;99320.38;5437899;26;20015;-73
2024/04/14 04:12:24;;;;;;;9.70;6.03;;;;;;;9.36;100.00;99317.50;5413043;26;19992;-73
2024/04/14 04:14:51;;;;;;;9.73;6.80;;;;;;;9.46;100.00;99321.81;5398104;26;20008;-72
2024/04/14 04:17:16;;;;;;;10.60;6.93;;;;;;;9.49;100.00;99324.16;5426748;26;20024;-73
2024/04/14 04:19:41;;;;;;;14.18;6.25;;;;;;;9.54;100.00;99325.28;5441072;26;20057;-73
2024/04/14 04:22:06;;;;;;;11.80;6.97;;;;;;;9.48;100.00;99320.59;5413448;26;19995;-73
2024/04/14 04:24:32;;;;;;;10.73;6.68;;;;;;;9.55;100.00;99329.66;5440818;26;20162;-72
2024/04/14 04:26:57;;;;;;;9.55;5.95;;;;;;;9.51;100.00;99316.69;5426603;26;19990;-72
2024/04/14 04:29:27;;;;;;;8.63;6.05;;;;;;;9.50;100.00;99317.72;5431511;26;20023;-73
2024/04/14 04:31:54;;;;;;;12.48;5.88;;;;;;;9.54;100.00;99316.34;5443651;26;20087;-73
2024/04/14 04:34:20;;;;;;;11.57;6.15;;;;;;;9.63;100.00;99336.84;5443901;26;19992;-72
2024/04/14 04:36:45;;;;;;;10.30;6.55;;;;;;;9.52;100.00;99331.88;5418373;26;20106;-73
2024/04/14 04:39:10;;;;;;;12.55;7.13;;;;;;;9.40;100.00;99326.91;5402486;26;20003;-72
2024/04/14 04:41:36;;;;;;;12.90;7.55;;;;;;;9.28;100.00;99314.88;5450490;26;20066;-72
2024/04/14 04:44:05;;;;;;;14.35;9.00;;;;;;;9.41;100.00;99325.91;5437213;26;20006;-73
2024/04/14 04:46:30;;;;;;;14.68;8.52;;;;;;;9.45;100.00;99326.38;5440304;26;20229;-72
2024/04/14 04:48:56;;;;;;;15.70;8.18;;;;;;;9.50;100.00;99323.13;5457181;26;19995;-72
2024/04/14 04:51:23;;;;;;;12.73;8.70;;;;;;;9.62;100.00;99332.47;5414715;26;20005;-72
2024/04/14 04:53:48;;;;;;;11.73;8.93;;;;;;;9.61;100.00;99320.78;5425272;26;19991;-72
2024/04/14 04:56:13;;;;;;;15.02;9.50;;;;;;;9.72;100.00;99332.19;5401400;26;20371;-72
2024/04/14 04:58:38;;;;;;;10.05;7.18;;;;;;;9.77;100.00;99325.22;5440731;26;20011;-73
2024/04/14 05:01:04;;;;;;;13.35;6.28;;;;;;;9.94;100.00;99333.16;5428051;26;20007;-73
2024/04/14 05:03:29;;;;;;;10.77;6.78;;;;;;;10.03;100.00;99313.94;5462106;26;19998;-73
2024/04/14 05:05:56;;;;;;;13.10;6.70;;;;;;;10.11;100.00;99299.47;5415182;26;20007;-73
2024/04/14 05:08:21;;;;;;;14.07;5.75;;;;;;;10.21;100.00;99304.59;5397388;26;20020;-72
2024/04/14 05:10:46;;;;;;;9.57;5.38;;;;;;;10.46;100.00;99319.50;5434128;26;19996;-73
2024/04/14 05:13:12;;;;;;;6.95;4.60;;;;;;;10.56;100.00;99311.09;5400955;26;19999;-72
2024/04/14 05:15:37;;;;;;;8.48;4.82;;;;;;;10.72;100.00;99291.91;5413375;26;20010;-72
2024/04/14 05:18:02;;;;;;;11.93;5.20;;;;;;;11.04;100.00;99322.19;5424196;26;20006;-73
2024/04/14 05:20:28;;;;;;;11.95;4.80;;;;;;;11.05;100.00;99296.78;5411001;26;19988;-72
2024/04/14 05:22:53;;;;;;;7.22;4.55;;;;;;;11.32;100.00;99316.84;5404566;26;20003;-72
2024/04/14 05:25:18;;;;;;;7.63;4.85;;;;;;;11.41;100.00;99310.22;5430948;26;20007;-72
2024/04/14 05:27:43;;;;;;;9.20;4.88;;;;;;;11.51;100.00;99296.34;5425369;26;20111;-73
2024/04/14 05:30:09;;;;;;;9.75;5.07;;;;;;;11.68;100.00;99302.28;5397490;26;20002;-72
2024/04/14 05:32:34;;;;;;;7.15;4.28;;;;;;;11.97;100.00;99304.00;5395908;26;20004;-72
2024/04/14 05:35:00;;;;;;;9.10;4.55;;;;;;;11.98;100.00;99278.53;5405825;26;20006;-72
2024/04/14 05:37:25;;;;;;;8.35;4.00;;;;;;;12.16;100.00;99296.16;5419590;26;20221;-73
2024/04/14 05:39:50;;;;;;;9.70;4.20;;;;;;;12.42;100.00;99288.13;5441067;26;19999;-72
2024/04/14 05:42:15;;;;;;;5.97;3.63;;;;;;;12.40;100.00;99278.50;5455264;26;19994;-73
2024/04/14 05:44:47;;;;;;;6.45;3.45;;;;;;;12.76;100.00;99270.03;5423723;26;20005;-73
2024/04/14 05:47:13;;;;;;;5.05;3.53;;;;;;;13.37;100.00;99286.19;5437298;26;20137;-73
2024/04/14 05:49:38;;;;;;;4.75;3.00;;;;;;;13.99;100.00;99291.31;5406878;26;19998;-72
2024/04/14 05:52:04;;;;;;;4.28;2.90;;;;;;;14.39;100.00;99280.31;5422687;26;19990;-73
2024/04/14 05:54:29;;;;;;;4.65;2.80;;;;;;;14.85;100.00;99269.16;5407536;26;20098;-72
2024/04/14 05:56:55;;;;;;;4.57;2.55;;;;;;;14.99;100.00;99269.94;5440729;26;20002;-73
2024/04/14 05:59:20;;;;;;;3.40;2.30;;;;;;;15.71;100.00;99278.56;5402282;26;20003;-74
2024/04/14 06:01:47;;;;;;;5.80;3.08;;;;;;;16.33;100.00;99281.25;5426564;26;20002;-73
2024/04/14 06:04:12;;;;;;;4.30;3.22;;;;;;;16.86;100.00;99293.38;5425717;26;19999;-73
2024/04/14 06:06:38;;;;;;;4.82;3.42;;;;;;;16.96;100.00;99299.13;5433956;26;19996;-80
2024/04/14 06:09:04;;;;;;;9.27;3.35;;;;;;;17.18;100.00;99291.22;5405351;26;19996;-74
2024/04/14 06:11:29;;;;;;;6.53;3.35;;;;;;;17.17;100.00;99300.50;5421305;26;20015;-75
2024/04/14 06:13:55;;;;;;;4.60;3.10;;;;;;;17.15;100.00;99299.88;5417940;26;20011;-75
2024/04/14 06:16:20;;;;;;;9.23;3.60;;;;;;;17.18;100.00;99291.22;5404706;26;20260;-74
2024/04/14 06:18:45;;;;;;;8.63;4.32;;;;;;;17.36;100.00;99295.78;5420471;26;19999;-77
2024/04/14 06:21:13;;;;;;;5.57;3.47;;;;;;;17.55;100.00;99292.94;5375706;26;20004;-79
2024/04/14 06:23:38;;;;;;;5.63;4.10;;;;;;;18.25;100.00;99312.09;5408547;26;19992;-78
2024/04/14 06:26:04;;;;;;;8.88;4.35;;;;;;;19.53;100.00;99302.75;5412723;26;20005;-76
2024/04/14 06:28:30;;;;;;;7.10;4.30;;;;;;;20.73;100.00;99314.91;5400896;26;19996;-77
2024/04/14 06:30:56;;;;;;;6.35;3.95;;;;;;;21.89;100.00;99308.00;5411168;26;19995;-76
2024/04/14 06:33:21;;;;;;;4.45;3.53;;;;;;;23.09;100.00;99284.28;5412136;26;20107;-76
2024/04/14 06:35:47;;;;;;;7.70;4.00;;;;;;;23.53;88.01;99302.28;5419448;26;19995;-76
2024/04/14 06:38:12;;;;;;;6.43;4.30;;;;;;;23.10;100.00;99302.50;5404998;26;19995;-75
2024/04/14 06:40:39;;;;;;;6.70;4.32;;;;;;;23.00;100.00;99315.44;5439664;26;20003;-75
2024/04/14 06:43:04;;;;;;;9.48;4.05;;;;;;;24.01;96.00;99306.38;5405925;26;19987;-75
2024/04/14 06:45:30;;;;;;;7.03;4.07;;;;;;;24.56;81.15;99289.94;5408202;26;19992;-75
2024/04/14 06:47:55;;;;;;;7.00;3.97;;;;;;;24.17;79.95;99304.41;5406805;26;19991;-76
2024/04/14 06:50:21;;;;;;;6.32;3.85;;;;;;;24.39;80.90;99306.84;5412642;26;20003;-77
2024/04/14 06:52:46;;;;;;;6.45;3.70;;;;;;;25.18;75.67;99307.06;5404289;26;19999;-77
2024/04/14 06:55:12;;;;;;;6.82;3.55;;;;;;;26.99;70.26;99291.88;5410747;26;19995;-73
2024/04/14 06:57:39;;;;;;;4.75;3.80;;;;;;;26.76;65.37;99274.16;5438072;26;19992;-74
2024/04/14 07:00:05;;;;;;;5.50;3.47;;;;;;;27.45;63.89;99302.28;5412950;26;19990;-74
2024/04/14 07:02:30;;;;;;;5.22;3.50;;;;;;;28.15;61.32;99298.56;5424184;26;20218;-75
2024/04/14 07:04:55;;;;;;;6.55;3.80;;;;;;;28.93;59.03;99298.66;5420667;26;19999;-74
2024/04/14 07:07:21;;;;;;;5.47;3.35;;;;;;;28.71;57.55;99299.41;5439331;26;19992;-75
2024/04/14 07:09:46;;;;;;;6.43;2.60;;;;;;;27.90;56.14;99296.28;5433418;26;19995;-72
2024/04/14 07:12:11;;;;;;;10.65;2.90;;;;;;;27.53;54.46;99275.75;5425107;26;20124;-74
2024/04/14 07:14:36;;;;;;;5.13;2.08;;;;;;;27.46;55.92;99300.34;5419989;26;20007;-73
2024/04/14 07:17:02;;;;;;;4.22;1.92;;;;;;;28.11;54.10;99286.44;5418201;26;20037;-72
2024/04/14 07:19:27;;;;;;;3.80;2.45;;;;;;;27.64;53.51;99293.09;5424921;26;19995;-73
2024/04/14 07:21:53;;;;;;;7.50;2.35;;;;;;;27.83;54.14;99277.22;5406252;26;20056;-76
2024/04/14 07:24:18;;;;;;;4.57;2.33;;;;;;;29.27;50.89;99280.66;5416898;26;20002;-76
2024/04/14 07:26:43;;;;;;;5.80;2.40;;;;;;;29.00;51.06;99285.16;5410225;26;20041;-79
2024/04/14 07:29:08;;;;;;;4.57;2.20;;;;;;;28.55;52.33;99279.44;5411861;26;20004;-77
2024/04/14 07:31:34;;;;;;;3.55;2.13;;;;;;;29.28;52.15;99288.66;5407545;26;19990;-76
2024/04/14 07:34:00;;;;;;;4.25;2.70;;;;;;;28.93;53.11;99289.50;5419234;26;19995;-76
2024/04/14 07:36:26;;;;;;;2.30;1.83;;;;;;;27.84;54.15;99283.59;5411622;26;20014;-77
2024/04/14 07:38:52;;;;;;;3.60;2.33;;;;;;;27.66;56.66;99293.63;5413549;26;19999;-76
2024/04/14 07:41:19;;;;;;;4.15;1.95;;;;;;;27.71;56.67;99288.78;5445176;26;20005;-76
2024/04/14 07:43:45;;;;;;;3.88;2.13;;;;;;;27.56;55.41;99297.38;5428704;26;20003;-72
2024/04/14 07:46:11;;;;;;;6.47;2.45;;;;;;;26.78;57.39;99279.41;5407722;26;19995;-73
2024/04/14 07:48:36;;;;;;;4.38;2.13;;;;;;;26.88;55.76;99280.09;5409621;26;19991;-73
2024/04/14 07:51:03;;;;;;;3.17;1.75;;;;;;;28.34;54.88;99280.97;5426896;26;19991;-73
2024/04/14 07:53:28;;;;;;;2.80;1.85;;;;;;;29.08;53.18;99291.94;5397592;26;20024;-72
2024/04/14 07:55:54;;;;;;;4.20;2.17;;;;;;;29.28;51.69;99273.91;5391397;26;20966;-77
2024/04/14 07:58:21;;;;;;;3.45;1.90;;;;;;;30.16;50.25;99276.13;5411671;26;20007;-77
2024/04/14 08:00:46;;;;;;;3.88;1.90;;;;;;;30.87;48.43;99289.19;5411693;26;20125;-77
2024/04/14 08:03:11;;;;;;;5.20;1.90;;;;;;;30.61;49.54;99295.50;5398535;26;19991;-78
2024/04/14 08:05:37;;;;;;;5.07;2.10;;;;;;;30.69;48.47;99285.50;5404947;26;19991;-70
2024/04/14 08:08:03;;;;;;;8.77;1.88;;;;;;;31.51;47.65;99297.78;5414233;26;19997;-74
2024/04/14 08:10:28;;;;;;;4.25;1.98;;;;;;;31.20;48.69;99278.34;5445108;26;19999;-75
2024/04/14 08:12:53;;;;;;;5.13;1.83;;;;;;;31.66;48.61;99293.66;5426557;26;20063;-71
2024/04/14 08:15:19;;;;;;;4.65;2.05;;;;;;;31.96;47.62;99286.19;5404998;26;20023;-71
2024/04/14 08:17:44;;;;;;;3.85;1.88;;;;;;;33.06;45.87;99282.69;5421266;26;19996;-74
2024/04/14 08:20:11;;;;;;;5.53;1.70;;;;;;;33.66;44.54;99292.56;5420378;26;19991;-76
2024/04/14 08:22:36;;;;;;;5.95;1.98;;;;;;;33.64;43.64;99297.69;5418535;26;20275;-75
2024/04/14 08:25:01;;;;;;;2.88;1.33;;;;;;;33.38;44.02;99284.75;5413813;26;20104;-73
2024/04/14 08:27:27;;;;;;;2.90;1.80;;;;;;;34.50;42.93;99283.84;5408882;26;19996;-75
2024/04/14 08:29:52;;;;;;;5.17;1.83;;;;;;;33.96;43.68;99282.03;5417880;26;19995;-77
2024/04/14 08:32:17;;;;;;;4.17;1.70;;;;;;;34.56;44.05;99282.44;5409762;26;20242;-76
2024/04/14 08:34:42;;;;;;;3.75;1.60;;;;;;;34.17;43.77;99296.00;5415163;26;20254;-76
2024/04/14 08:37:08;;;;;;;1.90;1.47;;;;;;;35.30;41.66;99294.41;5443600;26;20056;-75
2024/04/14 08:39:33;;;;;;;4.30;1.87;;;;;;;34.22;43.45;99280.94;5413577;26;20259;-75
2024/04/14 08:42:00;;;;;;;3.23;1.70;;;;;;;34.06;43.62;99286.41;5426934;26;20297;-76
2024/04/14 08:44:26;;;;;;;3.25;1.77;;;;;;;34.32;44.12;99302.09;5404625;26;20336;-77
2024/04/14 08:46:52;;;;;;;3.35;1.50;;;;;;;34.19;43.78;99295.66;5416551;26;20207;-75
2024/04/14 08:49:22;;;;;;;3.17;1.58;;;;;;;35.29;41.70;99275.91;5417953;26;19991;-75
2024/04/14 08:51:49;;;;;;;3.95;1.67;;;;;;;34.70;42.20;99298.97;5431962;26;19996;-75
2024/04/14 08:54:15;;;;;;;4.13;1.40;;;;;;;34.41;43.62;99291.59;5404750;26;20008;-75
2024/04/14 08:56:40;;;;;;;4.18;1.30;;;;;;;34.83;43.17;99283.72;5417738;26;20005;-75
2024/04/14 08:59:06;;;;;;;5.32;1.33;;;;;;;35.94;41.98;99266.44;5442405;26;20106;-75
2024/04/14 09:01:33;;;;;;;3.67;1.25;;;;;;;35.63;40.94;99284.09;5410598;26;20223;-75
2024/04/14 09:04:03;;;;;;;3.30;1.20;;;;;;;37.33;40.30;99273.81;5410221;26;19998;-76
2024/04/14 09:06:29;;;;;;;4.03;1.08;;;;;;;36.72;41.12;99273.28;5396002;26;20085;-81
2024/04/14 09:08:54;;;;;;;2.03;1.13;;;;;;;37.45;39.96;99268.03;5413453;26;20100;-76
2024/04/14 09:11:20;;;;;;;2.10;1.00;;;;;;;37.74;40.01;99271.44;5406872;26;19987;-75
2024/04/14 09:13:46;;;;;;;2.92;1.30;;;;;;;37.28;39.95;99278.59;5401801;26;20257;-76
2024/04/14 09:16:12;;;;;;;2.25;1.00;;;;;;;37.47;39.72;99269.28;5399545;26;19987;-75
2024/04/14 09:18:37;;;;;;;2.65;1.20;;;;;;;35.17;40.47;99277.94;5435495;26;20121;-76
2024/04/14 09:21:03;;;;;;;4.68;1.45;;;;;;;36.91;40.41;99268.84;5419067;26;20007;-75
2024/04/14 09:23:28;;;;;;;2.10;1.30;;;;;;;37.82;39.01;99274.00;5438096;26;20303;-75
2024/04/14 09:25:53;;;;;;;2.08;1.02;;;;;;;38.38;37.97;99275.41;5416782;26;20091;-76
2024/04/14 09:28:19;;;;;;;2.42;1.20;;;;;;;38.37;38.18;99276.59;5403216;26;20010;-76
2024/04/14 09:30:45;;;;;;;2.45;1.30;;;;;;;35.92;39.87;99268.78;5418082;26;19995;-75
2024/04/14 09:33:11;;;;;;;4.32;1.13;;;;;;;36.94;39.25;99265.28;5407175;26;19999;-76
2024/04/14 09:35:37;;;;;;;2.97;1.00;;;;;;;37.62;39.74;99252.63;5408998;26;20252;-74
2024/04/14 09:38:07;;;;;;;1.52;1.02;;;;;;;36.92;39.17;99264.84;5442280;26;20031;-75
2024/04/14 09:40:35;;;;;;;2.33;1.00;;;;;;;38.07;38.77;99268.84;5422968;26;19992;-79
2024/04/14 09:43:01;;;;;;;2.40;1.03;;;;;;;38.00;37.79;99273.56;5407326;26;20506;-78
2024/04/14 09:45:27;;;;;;;1.85;0.65;;;;;;;38.49;38.39;99267.97;5426683;26;20241;-76
2024/04/14 09:47:56;;;;;;;1.70;1.00;;;;;;;38.66;37.37;99258.09;5424550;26;19995;-77
2024/04/14 09:50:22;;;;;;;3.55;1.33;;;;;;;37.69;37.08;99270.53;5438444;26;20056;-79
2024/04/14 09:52:52;;;;;;;3.13;1.13;;;;;;;38.85;37.35;99274.13;5407860;26;19987;-78
2024/04/14 09:55:21;;;;;;;2.08;1.08;;;;;;;39.19;36.88;99248.75;5417196;26;20006;-79
2024/04/14 09:57:50;;;;;;;1.92;1.10;;;;;;;38.58;36.93;99265.66;5406663;26;20006;-72
2024/04/14 10:00:17;;;;;;;1.88;0.93;;;;;;;38.58;36.22;99254.34;5438703;26;20002;-73
2024/04/14 10:02:49;;;;;;;1.85;1.00;;;;;;;39.09;35.93;99252.25;5435124;26;20224;-72
2024/04/14 10:05:17;;;;;;;1.23;0.85;;;;;;;39.74;35.88;99240.50;5427559;26;19991;-72
2024/04/14 10:07:43;;;;;;;2.47;0.70;;;;;;;40.68;35.01;99248.63;5424760;26;20048;-73
2024/04/14 10:10:10;;;;;;;2.40;1.20;;;;;;;40.20;35.34;99234.47;5439307;26;19999;-72
2024/04/14 10:12:37;;;;;;;2.70;0.95;;;;;;;39.78;35.13;99246.25;5423464;26;19995;-72
2024/04/14 10:15:03;;;;;;;2.30;1.42;;;;;;;37.41;37.33;99247.38;5401440;26;20019;-72
2024/04/14 10:17:29;;;;;;;2.78;0.90;;;;;;;37.87;37.66;99250.28;5421813;26;20312;-72
2024/04/14 10:19:56;;;;;;;1.42;0.80;;;;;;;37.28;37.07;99241.91;5429479;26;20049;-73
2024/04/14 10:22:34;;;;;;;5.30;0.95;;;;;;;36.66;38.21;99231.66;5426703;26;20009;-71
2024/04/14 10:25:00;;;;;;;2.67;1.08;;;;;;;37.58;37.98;99230.00;5428523;26;20011;-72
2024/04/14 10:27:25;;;;;;;4.72;1.17;;;;;;;36.94;37.76;99222.97;5434669;26;20062;-72
2024/04/14 10:30:01;;;;;;;3.65;1.10;;;;;;;36.97;37.43;99225.06;5427706;26;20016;-72
2024/04/14 10:32:27;;;;;;;3.45;1.25;;;;;;;36.85;38.56;99231.66;5440727;26;20206;-72
2024/04/14 10:34:53;;;;;;;1.92;1.25;;;;;;;37.59;37.53;99227.97;5438863;26;20011;-73
2024/04/14 10:37:36;;;;;;;2.47;1.08;;;;;;;38.11;37.34;99224.50;5407211;26;20004;-72
2024/04/14 10:40:02;;;;;;;3.10;1.27;;;;;;;38.11;37.31;99207.53;5420266;26;20388;-72
2024/04/14 10:42:28;;;;;;;2.88;0.98;;;;;;;38.02;37.66;99212.66;5420387;26;19995;-72
2024/04/14 10:44:54;;;;;;;1.13;0.70;;;;;;;38.17;37.02;99224.19;5432916;26;19992;-71
2024/04/14 10:47:19;;;;;;;4.70;0.90;;;;;;;38.47;37.15;99219.44;5434152;26;20045;-72
2024/04/14 10:49:49;;;;;;;3.85;1.00;;;;;;;38.90;37.00;99208.75;5433066;26;20225;-73
2024/04/14 10:52:15;;;;;;;5.47;1.10;;;;;;;39.73;36.83;99198.41;5423260;26;20010;-72
2024/04/14 10:54:41;;;;;;;1.25;1.00;;;;;;;39.40;35.25;99202.91;5403551;26;20003;-72
2024/04/14 10:57:08;;;;;;;2.60;1.00;;;;;;;38.94;35.97;99194.69;5435987;26;20137;-73
2024/04/14 10:59:34;;;;;;;5.05;1.33;;;;;;;36.51;37.80;99197.44;5432971;26;20216;-72
2024/04/14 11:02:00;;;;;;;4.50;1.10;;;;;;;37.06;37.95;99191.84;5437350;26;19995;-72
2024/04/14 11:04:26;;;;;;;3.65;0.93;;;;;;;38.30;35.96;99181.19;5445871;26;19995;-72
2024/04/14 11:06:51;;;;;;;2.78;1.15;;;;;;;38.28;35.58;99189.25;5435545;26;20002;-71
2024/04/14 11:09:18;;;;;;;1.30;0.90;;;;;;;37.02;35.92;99176.81;5440244;26;19999;-71
2024/04/14 11:11:44;;;;;;;3.03;1.10;;;;;;;36.08;38.12;99190.81;5431656;26;19996;-72
2024/04/14 11:14:09;;;;;;;2.35;0.90;;;;;;;36.33;37.69;99188.56;5422492;26;19996;-72
2024/04/14 11:16:34;;;;;;;3.35;1.00;;;;;;;36.09;39.21;99188.81;5430666;26;20006;-72
2024/04/14 11:19:00;;;;;;;3.23;1.10;;;;;;;35.63;38.23;99177.16;5442794;26;19991;-73
2024/04/14 11:21:27;;;;;;;2.23;1.00;;;;;;;34.97;38.88;99179.31;5431079;26;20276;-72
2024/04/14 11:23:54;;;;;;;2.28;1.10;;;;;;;35.65;37.91;99181.22;5447463;26;20248;-73